createdAt,value
2019-04-23T00:01:25.429Z,40.30
2019-04-23T00:03:28.474Z,40.30
2019-04-23T00:06:15.167Z,40.40
2019-04-23T00:08:43.370Z,40.40
2019-04-23T00:11:05.655Z,40.40
2019-04-23T00:13:39.249Z,40.40
2019-04-23T00:16:24.797Z,40.50
2019-04-23T00:18:45.160Z,40.50
2019-04-23T00:21:23.544Z,40.60
2019-04-23T00:24:03.086Z,40.60
2019-04-23T00:29:06.693Z,40.70
2019-04-23T00:31:44.547Z,40.80
2019-04-23T00:34:19.306Z,40.70
2019-04-23T00:36:51.425Z,40.60
2019-04-23T00:39:34.351Z,40.80
2019-04-23T00:42:10.472Z,40.80
2019-04-23T00:44:40.352Z,41.00
2019-04-23T00:47:00.785Z,41.00
2019-04-23T00:49:59.998Z,41.00
2019-04-23T00:52:07.436Z,41.00
2019-04-23T00:54:39.445Z,41.00
2019-04-23T00:59:53.655Z,41.20
2019-04-23T01:02:22.988Z,41.40
2019-04-23T01:05:07.234Z,41.40
2019-04-23T01:10:15.107Z,41.30
2019-04-23T01:12:46.660Z,41.40
2019-04-23T01:15:26.042Z,41.50
2019-04-23T01:18:14.179Z,41.50
2019-04-23T01:20:52.713Z,41.70
2019-04-23T01:23:32.249Z,41.60
2019-04-23T01:26:34.313Z,41.70
2019-04-23T01:29:06.743Z,41.70
2019-04-23T01:31:47.861Z,41.80
2019-04-23T01:34:21.818Z,41.80
2019-04-23T01:36:54.664Z,41.80
2019-04-23T01:39:40.449Z,42.00
2019-04-23T01:41:57.423Z,41.90
2019-04-23T01:44:37.463Z,42.00
2019-04-23T01:47:11.582Z,42.30
2019-04-23T01:49:59.677Z,42.20
2019-04-23T01:52:24.899Z,42.40
2019-04-23T01:54:52.821Z,42.30
2019-04-23T01:57:28.833Z,42.30
2019-04-23T01:59:58.346Z,42.40
2019-04-23T02:02:26.183Z,42.40
2019-04-23T02:05:08.976Z,42.70
2019-04-23T02:07:45.887Z,42.60
2019-04-23T02:10:18.295Z,42.70
2019-04-23T02:12:42.271Z,42.70
2019-04-23T02:15:33.151Z,42.60
2019-04-23T02:18:05.476Z,42.60
2019-04-23T02:20:50.977Z,42.70
2019-04-23T02:25:56.890Z,42.80
2019-04-23T02:28:29.232Z,43.10
2019-04-23T02:38:45.259Z,43.20
2019-04-23T02:43:57.052Z,43.20
2019-04-23T02:46:17.706Z,43.40
2019-04-23T02:48:56.614Z,43.20
2019-04-23T02:51:37.062Z,43.30
2019-04-23T02:54:16.399Z,43.30
2019-04-23T02:59:21.829Z,43.70
2019-04-23T03:02:48.247Z,43.40
2019-04-23T03:04:45.764Z,43.40
2019-04-23T03:09:38.745Z,43.40
2019-04-23T03:12:08.280Z,43.40
2019-04-23T03:14:33.052Z,43.50
2019-04-23T03:17:10.633Z,43.60
2019-04-23T03:19:59.071Z,43.50
2019-04-23T03:22:47.458Z,43.50
2019-04-23T03:25:25.538Z,43.60
2019-04-23T03:30:53.081Z,44.00
2019-04-23T03:38:41.670Z,44.40
2019-04-23T03:40:56.813Z,44.80
2019-04-23T03:43:41.154Z,44.00
2019-04-23T03:48:59.561Z,44.00
2019-04-23T03:57:32.763Z,44.20
2019-04-23T04:05:42.189Z,44.10
2019-04-23T04:08:15.995Z,44.20
2019-04-23T04:10:52.385Z,44.20
2019-04-23T04:13:24.368Z,44.20
2019-04-23T04:15:55.685Z,44.20
2019-04-23T04:18:33.015Z,44.30
2019-04-23T04:26:13.424Z,44.30
2019-04-23T04:31:54.742Z,44.50
2019-04-23T04:36:21.701Z,44.50
2019-04-23T04:41:40.372Z,44.60
2019-04-23T04:46:47.760Z,44.50
2019-04-23T04:49:27.364Z,44.50
2019-04-23T04:56:56.521Z,44.80
2019-04-23T04:59:24.572Z,44.80
2019-04-23T05:02:01.217Z,44.70
2019-04-23T05:04:30.624Z,44.80
2019-04-23T05:07:01.897Z,44.80
2019-04-23T05:09:29.516Z,44.70
2019-04-23T05:12:09.141Z,45.00
2019-04-23T05:14:33.723Z,45.20
2019-04-23T05:16:56.639Z,45.10
2019-04-23T05:19:45.844Z,45.10
2019-04-23T05:22:02.928Z,45.00
2019-04-23T05:24:28.731Z,45.10
2019-04-23T05:27:00.976Z,45.50
2019-04-23T05:29:23.318Z,45.30
2019-04-23T05:31:52.951Z,45.60
2019-04-23T05:34:23.934Z,45.20
2019-04-23T05:37:15.954Z,45.10
2019-04-23T05:39:35.805Z,45.20
2019-04-23T05:41:53.666Z,45.30
2019-04-23T05:44:29.648Z,45.70
2019-04-23T05:46:59.641Z,45.30
2019-04-23T05:49:24.759Z,45.50
2019-04-23T05:56:55.147Z,46.20
2019-04-23T05:59:45.302Z,45.40
2019-04-23T06:01:57.036Z,45.60
2019-04-23T06:04:31.511Z,45.70
2019-04-23T06:09:30.375Z,45.50
2019-04-23T06:12:07.628Z,45.70
2019-04-23T06:14:40.280Z,45.70
2019-04-23T06:17:07.949Z,45.50
2019-04-23T06:19:36.784Z,45.80
2019-04-23T06:22:28.853Z,45.70
2019-04-23T06:27:13.406Z,45.70
2019-04-23T06:29:46.532Z,45.50
2019-04-23T06:32:06.413Z,46.00
2019-04-23T06:34:43.488Z,46.30
2019-04-23T06:37:09.809Z,45.80
2019-04-23T06:39:45.962Z,46.30
2019-04-23T06:42:23.416Z,45.70
2019-04-23T06:44:45.509Z,45.60
2019-04-23T06:49:54.640Z,46.20
2019-04-23T06:52:21.692Z,46.80
2019-04-23T06:55:09.074Z,46.80
2019-04-23T07:13:47.174Z,46.20
2019-04-23T07:16:17.902Z,45.80
2019-04-23T07:48:13.245Z,46.60
2019-04-23T07:50:48.042Z,46.80
2019-04-23T07:55:56.890Z,46.00
2019-04-23T07:58:25.768Z,46.30
2019-04-23T08:00:52.781Z,46.10
2019-04-23T08:03:27.368Z,45.90
2019-04-23T08:08:26.419Z,46.10
2019-04-23T08:13:53.516Z,46.00
2019-04-23T08:18:49.180Z,45.80
2019-04-23T08:21:16.194Z,46.30
2019-04-23T08:23:58.209Z,46.40
2019-04-23T08:26:39.204Z,46.10
2019-04-23T08:29:15.411Z,46.30
2019-04-23T08:31:50.113Z,46.10
2019-04-23T08:34:25.523Z,45.90
2019-04-23T08:36:50.149Z,46.50
2019-04-23T08:39:18.138Z,46.50
2019-04-23T08:44:27.308Z,46.20
2019-04-23T08:47:05.214Z,46.70
2019-04-23T08:52:10.127Z,46.00
2019-04-23T08:54:48.209Z,45.70
2019-04-23T08:59:39.357Z,47.10
2019-04-23T09:04:45.673Z,45.80
2019-04-23T09:07:15.706Z,46.10
2019-04-23T09:12:06.812Z,45.90
2019-04-23T09:14:38.262Z,45.80
2019-04-23T09:17:10.673Z,46.00
2019-04-23T09:19:42.824Z,45.90
2019-04-23T09:22:14.553Z,45.80
2019-04-23T09:24:41.547Z,45.70
2019-04-23T09:27:16.009Z,46.30
2019-04-23T09:29:45.673Z,46.30
2019-04-23T09:32:22.350Z,45.90
2019-04-23T09:43:12.171Z,46.40
2019-04-23T09:46:06.401Z,46.30
2019-04-23T09:48:41.111Z,45.50
2019-04-23T09:51:06.197Z,45.70
2019-04-23T09:56:01.133Z,45.60
2019-04-23T09:58:30.072Z,45.50
2019-04-23T10:01:19.954Z,46.00
2019-04-23T10:03:33.984Z,46.30
2019-04-23T10:05:59.797Z,45.60
2019-04-23T10:08:27.052Z,45.60
2019-04-23T10:10:49.272Z,46.00
2019-04-23T10:13:18.185Z,45.60
2019-04-23T10:15:49.630Z,45.40
2019-04-23T10:18:39.338Z,45.60
2019-04-23T10:21:11.204Z,45.30
2019-04-23T10:23:41.273Z,45.40
2019-04-23T10:26:16.417Z,45.10
2019-04-23T10:29:09.904Z,45.00
2019-04-23T10:32:02.053Z,45.30
2019-04-23T10:34:46.135Z,45.30
2019-04-23T10:37:31.428Z,45.70
2019-04-23T10:40:04.931Z,45.20
2019-04-23T10:42:43.229Z,45.30
2019-04-23T10:52:07.047Z,45.90
2019-04-23T10:57:22.604Z,45.60
2019-04-23T11:02:47.343Z,46.10
2019-04-23T11:05:29.195Z,46.40
2019-04-23T11:07:47.210Z,45.80
2019-04-23T11:10:34.390Z,45.90
2019-04-23T11:13:21.630Z,45.40
2019-04-23T11:16:27.587Z,45.10
2019-04-23T11:18:46.771Z,45.20
2019-04-23T11:24:20.858Z,45.00
2019-04-23T11:26:51.511Z,44.90
2019-04-23T11:29:27.901Z,44.70
2019-04-23T11:32:06.648Z,45.00
2019-04-23T11:37:37.932Z,44.50
2019-04-23T11:40:03.782Z,44.70
2019-04-23T11:45:41.684Z,44.60
2019-04-23T11:51:32.355Z,44.50
2019-04-23T11:53:36.108Z,44.40
2019-04-23T11:56:46.729Z,44.30
2019-04-23T11:59:10.211Z,44.30
2019-04-23T12:01:56.467Z,44.30
2019-04-23T12:12:55.651Z,47.30
2019-04-23T12:15:49.952Z,45.80
2019-04-23T12:21:28.004Z,47.20
2019-04-23T12:24:29.168Z,47.10
2019-04-23T12:26:56.545Z,47.50
2019-04-23T12:35:29.462Z,46.10
2019-04-23T12:40:59.225Z,46.60
2019-04-23T13:37:20.129Z,44.50
2019-04-23T15:58:00.883Z,44.50
2019-04-23T16:00:39.710Z,44.60
2019-04-23T16:02:42.101Z,44.40
2019-04-23T16:05:16.021Z,44.50
2019-04-23T16:08:26.462Z,44.60
2019-04-23T16:11:17.129Z,44.50
2019-04-23T16:16:37.375Z,44.50
2019-04-23T16:19:13.698Z,44.50
2019-04-23T16:21:51.403Z,44.60
2019-04-23T16:24:14.873Z,44.70
2019-04-23T16:26:55.992Z,44.60
2019-04-23T16:29:48.856Z,44.70
2019-04-23T16:35:19.799Z,44.90
2019-04-23T16:37:53.528Z,43.30
2019-04-23T16:40:19.947Z,43.50
2019-04-23T16:42:48.259Z,43.80
2019-04-23T16:45:23.349Z,44.00
2019-04-23T16:48:09.350Z,44.20
2019-04-23T16:51:02.686Z,44.10
2019-04-23T16:53:25.244Z,44.20
2019-04-23T16:56:05.482Z,44.30
2019-04-23T17:01:17.177Z,44.40
2019-04-23T17:03:59.981Z,44.60
2019-04-23T17:06:27.162Z,44.70
2019-04-23T17:08:57.437Z,44.80
2019-04-23T17:11:34.290Z,44.80
2019-04-23T17:14:08.092Z,44.90
2019-04-23T17:16:38.575Z,44.90
2019-04-23T17:19:23.419Z,45.00
2019-04-23T17:21:55.225Z,45.10
2019-04-23T17:24:25.977Z,45.30
2019-04-23T17:26:57.248Z,45.40
2019-04-23T17:29:24.826Z,45.40
2019-04-23T17:31:45.422Z,45.60
2019-04-23T17:34:30.197Z,45.50
2019-04-23T17:39:32.545Z,45.80
2019-04-23T17:42:22.515Z,45.80
2019-04-23T17:44:51.504Z,45.70
2019-04-23T17:47:27.286Z,46.50
2019-04-23T17:50:03.567Z,46.00
2019-04-23T17:52:26.235Z,46.10
2019-04-23T17:54:57.059Z,46.00
2019-04-23T17:57:24.315Z,45.90
2019-04-23T18:00:14.424Z,46.30
2019-04-23T18:05:04.848Z,46.90
2019-04-23T18:07:38.316Z,46.70
2019-04-23T18:10:13.279Z,47.10
2019-04-23T18:12:38.871Z,47.20
2019-04-23T18:15:02.903Z,46.70
2019-04-23T18:17:34.340Z,47.20
2019-04-23T18:20:05.249Z,47.00
2019-04-23T18:27:46.860Z,47.50
2019-04-23T19:46:05.554Z,47.10
2019-04-23T19:48:36.103Z,47.20
2019-04-23T19:56:08.738Z,47.30
2019-04-23T19:58:39.737Z,47.30
2019-04-23T20:03:43.782Z,47.30
2019-04-23T20:06:14.974Z,47.30
2019-04-23T20:08:53.283Z,47.50
2019-04-23T20:13:52.669Z,47.70
2019-04-23T20:16:30.540Z,47.80
2019-04-23T20:19:09.950Z,48.20
2019-04-23T20:21:38.827Z,48.20
2019-04-23T20:26:45.943Z,47.80
2019-04-23T20:37:32.087Z,47.10
2019-04-23T20:44:58.956Z,46.70
2019-04-23T20:47:48.460Z,47.00
2019-04-23T20:50:04.126Z,46.60
2019-04-23T20:52:40.773Z,46.50
2019-04-23T20:55:17.329Z,46.40
2019-04-23T20:57:55.624Z,46.40
2019-04-23T21:03:30.803Z,46.40
2019-04-23T21:05:56.109Z,46.30
2019-04-23T21:08:30.903Z,46.30
2019-04-23T21:10:55.385Z,46.30
2019-04-23T21:13:53.537Z,46.30
2019-04-23T21:16:08.544Z,46.30
2019-04-23T21:21:33.526Z,46.30
2019-04-23T21:23:50.231Z,46.30
2019-04-23T21:26:20.054Z,45.80
2019-04-23T21:28:58.712Z,46.20
2019-04-23T21:31:55.538Z,46.30
2019-04-23T21:39:29.658Z,46.30
2019-04-23T21:42:04.848Z,46.30
2019-04-23T21:44:38.584Z,46.30
2019-04-23T21:47:08.994Z,46.30
2019-04-23T21:49:53.780Z,46.30
2019-04-23T21:52:16.385Z,46.30
2019-04-23T21:54:51.610Z,46.30
2019-04-23T21:57:29.496Z,46.30
2019-04-23T22:00:07.979Z,46.30
2019-04-23T22:08:03.490Z,46.40
2019-04-23T22:10:45.604Z,46.40
2019-04-23T22:13:24.914Z,46.40
2019-04-23T22:16:01.376Z,46.40
2019-04-23T22:18:25.227Z,46.40
2019-04-23T22:21:06.577Z,46.50
2019-04-23T22:23:52.952Z,46.40
2019-04-23T22:26:18.637Z,46.50
2019-04-23T22:28:57.812Z,46.50
2019-04-23T22:31:21.411Z,46.50
2019-04-23T22:33:53.781Z,46.50
2019-04-23T22:36:23.067Z,46.50
2019-04-23T22:39:11.534Z,46.10
2019-04-23T22:44:12.055Z,46.60
2019-04-23T22:46:52.471Z,46.50
2019-04-23T22:52:08.800Z,46.60
2019-04-23T22:54:57.287Z,46.70
2019-04-23T22:57:26.179Z,46.70
2019-04-23T23:00:12.960Z,46.70
2019-04-23T23:02:59.482Z,46.80
2019-04-23T23:05:53.872Z,46.70
2019-04-23T23:08:13.397Z,46.80
2019-04-23T23:10:50.744Z,46.80
2019-04-23T23:16:19.958Z,46.80
2019-04-23T23:18:43.462Z,46.80
2019-04-23T23:21:16.385Z,46.80
2019-04-23T23:23:53.276Z,46.90
2019-04-23T23:26:38.526Z,47.00
2019-04-23T23:29:00.790Z,47.00
2019-04-23T23:31:57.801Z,47.00
2019-04-23T23:34:27.733Z,46.90
2019-04-23T23:37:07.190Z,47.00
2019-04-23T23:39:49.738Z,47.00
2019-04-23T23:45:18.376Z,46.60
2019-04-23T23:47:59.518Z,47.10
2019-04-23T23:50:45.848Z,47.20
2019-04-23T23:53:27.628Z,47.20
2019-04-23T23:55:58.690Z,47.20
2019-04-23T23:58:41.076Z,47.20
